sensor_id;sensor_type;location;lat;lon;timestamp;P1;durP1;ratioP1;P2;durP2;ratioP2
46507;SDS011;32223;53.654;10.014;2022-08-01T00:00:23;15.38;;;10.85;;
46507;SDS011;32223;53.654;10.014;2022-08-01T00:02:49;12.48;;;10.25;;
46507;SDS011;32223;53.654;10.014;2022-08-01T00:05:15;12.20;;;10.25;;
46507;SDS011;32223;53.654;10.014;2022-08-01T00:07:40;15.73;;;10.43;;
46507;SDS011;32223;53.654;10.014;2022-08-01T00:10:07;10.98;;;9.23;;
46507;SDS011;32223;53.654;10.014;2022-08-01T00:12:35;13.35;;;10.00;;
46507;SDS011;32223;53.654;10.014;2022-08-01T00:15:00;12.82;;;9.88;;
46507;SDS011;32223;53.654;10.014;2022-08-01T00:17:27;13.90;;;10.60;;
46507;SDS011;32223;53.654;10.014;2022-08-01T00:19:52;11.68;;;10.43;;
46507;SDS011;32223;53.654;10.014;2022-08-01T00:22:18;12.60;;;10.52;;
46507;SDS011;32223;53.654;10.014;2022-08-01T00:24:43;14.13;;;10.55;;
46507;SDS011;32223;53.654;10.014;2022-08-01T00:27:09;12.35;;;9.88;;
46507;SDS011;32223;53.654;10.014;2022-08-01T00:29:34;11.15;;;9.73;;
46507;SDS011;32223;53.654;10.014;2022-08-01T00:32:00;11.63;;;10.40;;
46507;SDS011;32223;53.654;10.014;2022-08-01T00:34:26;12.13;;;10.25;;
46507;SDS011;32223;53.654;10.014;2022-08-01T00:36:51;13.60;;;10.82;;
46507;SDS011;32223;53.654;10.014;2022-08-01T00:39:17;13.75;;;11.13;;
46507;SDS011;32223;53.654;10.014;2022-08-01T00:41:42;15.68;;;10.85;;
46507;SDS011;32223;53.654;10.014;2022-08-01T00:44:08;14.50;;;10.65;;
46507;SDS011;32223;53.654;10.014;2022-08-01T00:46:34;12.55;;;10.30;;
46507;SDS011;32223;53.654;10.014;2022-08-01T00:49:00;15.80;;;10.68;;
46507;SDS011;32223;53.654;10.014;2022-08-01T00:51:26;15.85;;;10.50;;
46507;SDS011;32223;53.654;10.014;2022-08-01T00:53:52;14.95;;;10.23;;
46507;SDS011;32223;53.654;10.014;2022-08-01T00:56:19;15.55;;;9.80;;
46507;SDS011;32223;53.654;10.014;2022-08-01T00:58:47;13.10;;;9.65;;
46507;SDS011;32223;53.654;10.014;2022-08-01T01:01:13;13.73;;;9.80;;
46507;SDS011;32223;53.654;10.014;2022-08-01T01:03:38;11.95;;;9.30;;
46507;SDS011;32223;53.654;10.014;2022-08-01T01:06:11;15.48;;;10.55;;
46507;SDS011;32223;53.654;10.014;2022-08-01T01:11:44;12.43;;;8.95;;
46507;SDS011;32223;53.654;10.014;2022-08-01T01:14:27;11.27;;;8.90;;
46507;SDS011;32223;53.654;10.014;2022-08-01T01:17:11;11.82;;;9.32;;
46507;SDS011;32223;53.654;10.014;2022-08-01T01:19:41;13.88;;;8.80;;
46507;SDS011;32223;53.654;10.014;2022-08-01T01:28:02;14.55;;;10.45;;
46507;SDS011;32223;53.654;10.014;2022-08-01T01:30:32;21.45;;;10.80;;
46507;SDS011;32223;53.654;10.014;2022-08-01T01:32:59;16.13;;;9.63;;
46507;SDS011;32223;53.654;10.014;2022-08-01T01:35:30;14.65;;;10.02;;
46507;SDS011;32223;53.654;10.014;2022-08-01T01:38:07;12.30;;;9.23;;
46507;SDS011;32223;53.654;10.014;2022-08-01T01:40:36;13.05;;;9.32;;
46507;SDS011;32223;53.654;10.014;2022-08-01T01:43:03;14.10;;;10.20;;
46507;SDS011;32223;53.654;10.014;2022-08-01T01:45:31;15.27;;;9.88;;
46507;SDS011;32223;53.654;10.014;2022-08-01T01:47:57;14.35;;;9.10;;
46507;SDS011;32223;53.654;10.014;2022-08-01T01:50:24;15.38;;;10.27;;
46507;SDS011;32223;53.654;10.014;2022-08-01T01:52:50;12.77;;;9.93;;
46507;SDS011;32223;53.654;10.014;2022-08-01T01:55:18;14.75;;;10.25;;
46507;SDS011;32223;53.654;10.014;2022-08-01T01:57:46;17.45;;;9.57;;
46507;SDS011;32223;53.654;10.014;2022-08-01T02:00:13;12.80;;;9.18;;
46507;SDS011;32223;53.654;10.014;2022-08-01T02:02:40;12.55;;;8.05;;
46507;SDS011;32223;53.654;10.014;2022-08-01T02:05:09;12.90;;;8.00;;
46507;SDS011;32223;53.654;10.014;2022-08-01T02:07:36;10.15;;;7.82;;
46507;SDS011;32223;53.654;10.014;2022-08-01T02:10:03;9.98;;;7.18;;
46507;SDS011;32223;53.654;10.014;2022-08-01T02:12:30;12.35;;;8.40;;
46507;SDS011;32223;53.654;10.014;2022-08-01T02:14:59;10.65;;;8.07;;
46507;SDS011;32223;53.654;10.014;2022-08-01T02:17:26;10.00;;;7.88;;
46507;SDS011;32223;53.654;10.014;2022-08-01T02:19:53;11.98;;;7.63;;
46507;SDS011;32223;53.654;10.014;2022-08-01T02:22:21;8.93;;;7.28;;
46507;SDS011;32223;53.654;10.014;2022-08-01T02:27:59;10.27;;;7.55;;
46507;SDS011;32223;53.654;10.014;2022-08-01T02:30:33;14.95;;;7.70;;
46507;SDS011;32223;53.654;10.014;2022-08-01T02:33:38;11.37;;;7.93;;
46507;SDS011;32223;53.654;10.014;2022-08-01T02:36:02;10.15;;;6.32;;
46507;SDS011;32223;53.654;10.014;2022-08-01T02:38:28;9.27;;;6.95;;
46507;SDS011;32223;53.654;10.014;2022-08-01T02:40:59;10.80;;;7.43;;
46507;SDS011;32223;53.654;10.014;2022-08-01T02:43:40;12.77;;;7.32;;
46507;SDS011;32223;53.654;10.014;2022-08-01T02:46:11;9.20;;;6.93;;
46507;SDS011;32223;53.654;10.014;2022-08-01T02:48:42;10.73;;;7.75;;
46507;SDS011;32223;53.654;10.014;2022-08-01T02:51:08;9.07;;;6.60;;
46507;SDS011;32223;53.654;10.014;2022-08-01T02:53:36;8.30;;;6.70;;
46507;SDS011;32223;53.654;10.014;2022-08-01T02:56:06;9.93;;;7.05;;
46507;SDS011;32223;53.654;10.014;2022-08-01T02:58:33;7.68;;;6.50;;
46507;SDS011;32223;53.654;10.014;2022-08-01T03:01:01;12.82;;;6.88;;
46507;SDS011;32223;53.654;10.014;2022-08-01T03:03:28;11.68;;;6.20;;
46507;SDS011;32223;53.654;10.014;2022-08-01T03:05:54;8.95;;;5.85;;
46507;SDS011;32223;53.654;10.014;2022-08-01T03:08:22;8.55;;;6.63;;
46507;SDS011;32223;53.654;10.014;2022-08-01T03:10:49;7.95;;;7.03;;
46507;SDS011;32223;53.654;10.014;2022-08-01T03:13:17;9.68;;;6.65;;
46507;SDS011;32223;53.654;10.014;2022-08-01T03:15:45;8.68;;;6.28;;
46507;SDS011;32223;53.654;10.014;2022-08-01T03:18:11;12.45;;;6.85;;
46507;SDS011;32223;53.654;10.014;2022-08-01T03:20:39;10.00;;;6.65;;
46507;SDS011;32223;53.654;10.014;2022-08-01T03:23:06;9.02;;;6.55;;
46507;SDS011;32223;53.654;10.014;2022-08-01T03:25:35;10.80;;;6.85;;
46507;SDS011;32223;53.654;10.014;2022-08-01T03:28:03;9.98;;;7.10;;
46507;SDS011;32223;53.654;10.014;2022-08-01T03:30:30;9.55;;;6.03;;
46507;SDS011;32223;53.654;10.014;2022-08-01T03:32:58;7.55;;;6.32;;
46507;SDS011;32223;53.654;10.014;2022-08-01T03:35:29;12.18;;;6.78;;
46507;SDS011;32223;53.654;10.014;2022-08-01T03:37:58;9.50;;;6.30;;
46507;SDS011;32223;53.654;10.014;2022-08-01T03:40:37;7.57;;;6.20;;
46507;SDS011;32223;53.654;10.014;2022-08-01T03:43:05;7.05;;;5.90;;
46507;SDS011;32223;53.654;10.014;2022-08-01T03:45:38;8.25;;;5.90;;
46507;SDS011;32223;53.654;10.014;2022-08-01T03:48:09;8.65;;;6.18;;
46507;SDS011;32223;53.654;10.014;2022-08-01T03:50:43;10.05;;;5.60;;
46507;SDS011;32223;53.654;10.014;2022-08-01T03:53:13;9.30;;;5.95;;
46507;SDS011;32223;53.654;10.014;2022-08-01T03:55:41;6.20;;;5.10;;
46507;SDS011;32223;53.654;10.014;2022-08-01T03:58:08;7.00;;;5.95;;
46507;SDS011;32223;53.654;10.014;2022-08-01T04:00:36;8.50;;;5.13;;
46507;SDS011;32223;53.654;10.014;2022-08-01T04:03:08;10.32;;;4.65;;
46507;SDS011;32223;53.654;10.014;2022-08-01T04:05:35;7.78;;;5.38;;
46507;SDS011;32223;53.654;10.014;2022-08-01T04:08:01;8.60;;;5.65;;
46507;SDS011;32223;53.654;10.014;2022-08-01T04:10:27;9.05;;;5.30;;
46507;SDS011;32223;53.654;10.014;2022-08-01T04:12:54;6.55;;;4.75;;
46507;SDS011;32223;53.654;10.014;2022-08-01T04:15:20;7.47;;;4.35;;
46507;SDS011;32223;53.654;10.014;2022-08-01T04:17:46;7.85;;;5.05;;
46507;SDS011;32223;53.654;10.014;2022-08-01T04:20:12;7.88;;;5.05;;
46507;SDS011;32223;53.654;10.014;2022-08-01T04:22:38;8.27;;;5.22;;
46507;SDS011;32223;53.654;10.014;2022-08-01T04:25:06;8.07;;;4.88;;
46507;SDS011;32223;53.654;10.014;2022-08-01T04:27:37;7.22;;;4.03;;
46507;SDS011;32223;53.654;10.014;2022-08-01T04:30:05;6.28;;;4.72;;
46507;SDS011;32223;53.654;10.014;2022-08-01T04:32:33;7.13;;;4.80;;
46507;SDS011;32223;53.654;10.014;2022-08-01T04:35:02;5.43;;;4.88;;
46507;SDS011;32223;53.654;10.014;2022-08-01T04:37:31;7.85;;;4.32;;
46507;SDS011;32223;53.654;10.014;2022-08-01T04:39:58;6.35;;;4.43;;
46507;SDS011;32223;53.654;10.014;2022-08-01T04:42:25;7.50;;;4.38;;
46507;SDS011;32223;53.654;10.014;2022-08-01T04:44:52;7.18;;;4.13;;
46507;SDS011;32223;53.654;10.014;2022-08-01T04:47:18;6.40;;;3.53;;
46507;SDS011;32223;53.654;10.014;2022-08-01T04:49:44;6.22;;;4.10;;
46507;SDS011;32223;53.654;10.014;2022-08-01T04:52:11;5.75;;;3.95;;
46507;SDS011;32223;53.654;10.014;2022-08-01T04:54:36;3.75;;;3.30;;
46507;SDS011;32223;53.654;10.014;2022-08-01T04:57:03;5.57;;;3.78;;
46507;SDS011;32223;53.654;10.014;2022-08-01T04:59:30;7.90;;;3.33;;
46507;SDS011;32223;53.654;10.014;2022-08-01T05:02:12;6.15;;;3.35;;
46507;SDS011;32223;53.654;10.014;2022-08-01T05:04:40;4.05;;;3.03;;
46507;SDS011;32223;53.654;10.014;2022-08-01T05:07:07;4.45;;;2.47;;
46507;SDS011;32223;53.654;10.014;2022-08-01T05:09:33;3.13;;;2.30;;
46507;SDS011;32223;53.654;10.014;2022-08-01T05:12:01;2.67;;;2.15;;
46507;SDS011;32223;53.654;10.014;2022-08-01T05:14:28;4.65;;;2.60;;
46507;SDS011;32223;53.654;10.014;2022-08-01T05:16:56;2.97;;;1.85;;
46507;SDS011;32223;53.654;10.014;2022-08-01T05:19:23;4.85;;;2.20;;
46507;SDS011;32223;53.654;10.014;2022-08-01T05:21:49;2.40;;;1.90;;
46507;SDS011;32223;53.654;10.014;2022-08-01T05:24:15;5.95;;;2.10;;
46507;SDS011;32223;53.654;10.014;2022-08-01T05:26:40;2.47;;;1.90;;
46507;SDS011;32223;53.654;10.014;2022-08-01T05:29:06;4.35;;;2.45;;
46507;SDS011;32223;53.654;10.014;2022-08-01T05:31:32;4.13;;;1.60;;
46507;SDS011;32223;53.654;10.014;2022-08-01T05:33:59;4.20;;;1.90;;
46507;SDS011;32223;53.654;10.014;2022-08-01T05:36:26;4.47;;;1.92;;
46507;SDS011;32223;53.654;10.014;2022-08-01T05:38:52;6.10;;;2.28;;
46507;SDS011;32223;53.654;10.014;2022-08-01T05:41:17;4.32;;;1.80;;
46507;SDS011;32223;53.654;10.014;2022-08-01T05:43:43;3.67;;;1.65;;
46507;SDS011;32223;53.654;10.014;2022-08-01T05:46:08;3.90;;;1.95;;
46507;SDS011;32223;53.654;10.014;2022-08-01T05:48:34;5.18;;;2.88;;
46507;SDS011;32223;53.654;10.014;2022-08-01T05:51:00;3.78;;;1.90;;
46507;SDS011;32223;53.654;10.014;2022-08-01T05:53:25;5.78;;;2.15;;
46507;SDS011;32223;53.654;10.014;2022-08-01T05:55:51;3.53;;;1.90;;
46507;SDS011;32223;53.654;10.014;2022-08-01T05:58:17;8.93;;;2.47;;
46507;SDS011;32223;53.654;10.014;2022-08-01T06:00:42;5.22;;;2.70;;
46507;SDS011;32223;53.654;10.014;2022-08-01T06:03:08;8.02;;;2.10;;
46507;SDS011;32223;53.654;10.014;2022-08-01T06:05:33;4.65;;;1.75;;
46507;SDS011;32223;53.654;10.014;2022-08-01T06:07:59;6.00;;;2.30;;
46507;SDS011;32223;53.654;10.014;2022-08-01T06:10:25;4.97;;;1.95;;
46507;SDS011;32223;53.654;10.014;2022-08-01T06:12:50;4.70;;;1.75;;
46507;SDS011;32223;53.654;10.014;2022-08-01T06:15:16;11.32;;;2.42;;
46507;SDS011;32223;53.654;10.014;2022-08-01T06:17:41;6.70;;;2.10;;
46507;SDS011;32223;53.654;10.014;2022-08-01T06:20:07;4.20;;;2.00;;
46507;SDS011;32223;53.654;10.014;2022-08-01T06:22:33;8.48;;;3.05;;
46507;SDS011;32223;53.654;10.014;2022-08-01T06:24:59;6.03;;;2.08;;
46507;SDS011;32223;53.654;10.014;2022-08-01T06:27:25;7.30;;;2.40;;
46507;SDS011;32223;53.654;10.014;2022-08-01T06:29:51;6.07;;;2.38;;
46507;SDS011;32223;53.654;10.014;2022-08-01T06:32:20;6.22;;;2.80;;
46507;SDS011;32223;53.654;10.014;2022-08-01T06:34:47;7.40;;;2.22;;
46507;SDS011;32223;53.654;10.014;2022-08-01T06:37:13;7.07;;;2.65;;
46507;SDS011;32223;53.654;10.014;2022-08-01T06:39:40;7.55;;;3.20;;
46507;SDS011;32223;53.654;10.014;2022-08-01T06:42:06;7.78;;;2.65;;
46507;SDS011;32223;53.654;10.014;2022-08-01T06:44:32;6.10;;;2.90;;
46507;SDS011;32223;53.654;10.014;2022-08-01T06:46:57;6.43;;;2.20;;
46507;SDS011;32223;53.654;10.014;2022-08-01T06:49:25;8.18;;;2.65;;
46507;SDS011;32223;53.654;10.014;2022-08-01T06:51:51;8.35;;;3.72;;
46507;SDS011;32223;53.654;10.014;2022-08-01T06:54:17;6.80;;;2.88;;
46507;SDS011;32223;53.654;10.014;2022-08-01T06:56:43;8.93;;;4.10;;
46507;SDS011;32223;53.654;10.014;2022-08-01T06:59:08;8.93;;;3.15;;
46507;SDS011;32223;53.654;10.014;2022-08-01T07:01:34;8.88;;;4.15;;
46507;SDS011;32223;53.654;10.014;2022-08-01T07:03:59;8.70;;;4.10;;
46507;SDS011;32223;53.654;10.014;2022-08-01T07:06:26;7.40;;;4.85;;
46507;SDS011;32223;53.654;10.014;2022-08-01T07:08:52;12.15;;;4.43;;
46507;SDS011;32223;53.654;10.014;2022-08-01T07:11:18;12.65;;;4.57;;
46507;SDS011;32223;53.654;10.014;2022-08-01T07:13:44;8.75;;;3.60;;
46507;SDS011;32223;53.654;10.014;2022-08-01T07:16:16;8.98;;;3.20;;
46507;SDS011;32223;53.654;10.014;2022-08-01T07:18:42;6.60;;;3.78;;
46507;SDS011;32223;53.654;10.014;2022-08-01T07:21:07;9.57;;;4.00;;
46507;SDS011;32223;53.654;10.014;2022-08-01T07:23:33;9.48;;;4.05;;
46507;SDS011;32223;53.654;10.014;2022-08-01T07:25:59;15.98;;;3.50;;
46507;SDS011;32223;53.654;10.014;2022-08-01T07:28:28;11.00;;;3.63;;
46507;SDS011;32223;53.654;10.014;2022-08-01T07:30:54;13.45;;;3.28;;
46507;SDS011;32223;53.654;10.014;2022-08-01T07:33:20;13.30;;;3.63;;
46507;SDS011;32223;53.654;10.014;2022-08-01T07:35:47;13.18;;;3.60;;
46507;SDS011;32223;53.654;10.014;2022-08-01T07:38:13;7.05;;;3.15;;
46507;SDS011;32223;53.654;10.014;2022-08-01T07:40:40;12.43;;;4.25;;
46507;SDS011;32223;53.654;10.014;2022-08-01T07:43:05;13.27;;;3.75;;
46507;SDS011;32223;53.654;10.014;2022-08-01T07:45:31;11.15;;;4.47;;
46507;SDS011;32223;53.654;10.014;2022-08-01T07:48:01;10.32;;;2.95;;
46507;SDS011;32223;53.654;10.014;2022-08-01T07:50:30;11.55;;;3.30;;
46507;SDS011;32223;53.654;10.014;2022-08-01T07:52:56;20.20;;;8.82;;
46507;SDS011;32223;53.654;10.014;2022-08-01T07:55:21;8.63;;;2.95;;
46507;SDS011;32223;53.654;10.014;2022-08-01T07:57:47;17.35;;;3.50;;
46507;SDS011;32223;53.654;10.014;2022-08-01T08:00:13;12.10;;;3.10;;
46507;SDS011;32223;53.654;10.014;2022-08-01T08:02:39;13.45;;;2.88;;
46507;SDS011;32223;53.654;10.014;2022-08-01T08:05:05;9.30;;;2.75;;
46507;SDS011;32223;53.654;10.014;2022-08-01T08:07:33;10.25;;;2.95;;
46507;SDS011;32223;53.654;10.014;2022-08-01T08:09:58;8.63;;;2.95;;
46507;SDS011;32223;53.654;10.014;2022-08-01T08:12:24;6.85;;;2.50;;
46507;SDS011;32223;53.654;10.014;2022-08-01T08:14:50;10.70;;;2.88;;
46507;SDS011;32223;53.654;10.014;2022-08-01T08:17:16;11.07;;;4.50;;
46507;SDS011;32223;53.654;10.014;2022-08-01T08:19:41;8.73;;;2.70;;
46507;SDS011;32223;53.654;10.014;2022-08-01T08:22:07;7.68;;;2.75;;
46507;SDS011;32223;53.654;10.014;2022-08-01T08:24:34;5.97;;;2.58;;
46507;SDS011;32223;53.654;10.014;2022-08-01T08:27:01;7.63;;;2.38;;
46507;SDS011;32223;53.654;10.014;2022-08-01T08:29:27;8.60;;;2.92;;
46507;SDS011;32223;53.654;10.014;2022-08-01T08:31:55;6.20;;;2.95;;
46507;SDS011;32223;53.654;10.014;2022-08-01T08:34:21;6.90;;;2.47;;
46507;SDS011;32223;53.654;10.014;2022-08-01T08:36:47;5.40;;;2.65;;
46507;SDS011;32223;53.654;10.014;2022-08-01T08:39:14;8.07;;;2.50;;
46507;SDS011;32223;53.654;10.014;2022-08-01T08:41:40;5.93;;;2.97;;
46507;SDS011;32223;53.654;10.014;2022-08-01T08:44:06;7.82;;;2.10;;
46507;SDS011;32223;53.654;10.014;2022-08-01T08:46:34;7.75;;;2.45;;
46507;SDS011;32223;53.654;10.014;2022-08-01T08:49:09;5.20;;;1.80;;
46507;SDS011;32223;53.654;10.014;2022-08-01T08:51:37;6.15;;;2.42;;
46507;SDS011;32223;53.654;10.014;2022-08-01T08:54:04;8.90;;;2.83;;
46507;SDS011;32223;53.654;10.014;2022-08-01T08:56:32;9.10;;;2.67;;
46507;SDS011;32223;53.654;10.014;2022-08-01T08:59:00;5.07;;;1.90;;
46507;SDS011;32223;53.654;10.014;2022-08-01T09:01:26;4.55;;;1.73;;
46507;SDS011;32223;53.654;10.014;2022-08-01T09:03:52;10.00;;;2.70;;
46507;SDS011;32223;53.654;10.014;2022-08-01T09:06:18;10.50;;;3.08;;
46507;SDS011;32223;53.654;10.014;2022-08-01T09:08:44;7.20;;;2.15;;
46507;SDS011;32223;53.654;10.014;2022-08-01T09:11:10;10.55;;;2.38;;
46507;SDS011;32223;53.654;10.014;2022-08-01T09:13:35;7.68;;;2.63;;
46507;SDS011;32223;53.654;10.014;2022-08-01T09:16:01;6.90;;;2.47;;
46507;SDS011;32223;53.654;10.014;2022-08-01T09:18:30;9.73;;;2.30;;
46507;SDS011;32223;53.654;10.014;2022-08-01T09:21:17;8.32;;;2.55;;
46507;SDS011;32223;53.654;10.014;2022-08-01T09:23:49;5.40;;;1.77;;
46507;SDS011;32223;53.654;10.014;2022-08-01T09:26:17;8.07;;;2.55;;
46507;SDS011;32223;53.654;10.014;2022-08-01T09:28:45;8.43;;;2.28;;
46507;SDS011;32223;53.654;10.014;2022-08-01T09:31:16;9.68;;;2.35;;
46507;SDS011;32223;53.654;10.014;2022-08-01T09:33:47;7.88;;;2.45;;
46507;SDS011;32223;53.654;10.014;2022-08-01T09:39:18;10.18;;;2.03;;
46507;SDS011;32223;53.654;10.014;2022-08-01T09:41:45;6.32;;;2.45;;
46507;SDS011;32223;53.654;10.014;2022-08-01T09:44:11;9.43;;;2.55;;
46507;SDS011;32223;53.654;10.014;2022-08-01T09:46:50;6.80;;;2.17;;
46507;SDS011;32223;53.654;10.014;2022-08-01T09:49:28;8.63;;;1.95;;
46507;SDS011;32223;53.654;10.014;2022-08-01T09:51:59;7.68;;;1.80;;
46507;SDS011;32223;53.654;10.014;2022-08-01T09:54:38;3.95;;;1.42;;
46507;SDS011;32223;53.654;10.014;2022-08-01T09:57:08;10.20;;;2.58;;
46507;SDS011;32223;53.654;10.014;2022-08-01T09:59:46;10.32;;;3.13;;
46507;SDS011;32223;53.654;10.014;2022-08-01T10:02:14;5.28;;;1.98;;
46507;SDS011;32223;53.654;10.014;2022-08-01T10:04:51;8.23;;;1.92;;
46507;SDS011;32223;53.654;10.014;2022-08-01T10:07:18;5.70;;;1.98;;
46507;SDS011;32223;53.654;10.014;2022-08-01T10:09:44;7.00;;;1.75;;
46507;SDS011;32223;53.654;10.014;2022-08-01T10:12:15;6.88;;;1.38;;
46507;SDS011;32223;53.654;10.014;2022-08-01T10:14:44;6.22;;;2.00;;
46507;SDS011;32223;53.654;10.014;2022-08-01T10:17:13;7.90;;;1.98;;
46507;SDS011;32223;53.654;10.014;2022-08-01T10:19:39;4.15;;;1.63;;
46507;SDS011;32223;53.654;10.014;2022-08-01T10:22:07;4.82;;;1.40;;
46507;SDS011;32223;53.654;10.014;2022-08-01T10:24:35;8.38;;;2.65;;
46507;SDS011;32223;53.654;10.014;2022-08-01T10:27:08;11.05;;;2.10;;
46507;SDS011;32223;53.654;10.014;2022-08-01T10:32:13;9.27;;;1.63;;
46507;SDS011;32223;53.654;10.014;2022-08-01T10:34:39;7.53;;;1.75;;
46507;SDS011;32223;53.654;10.014;2022-08-01T10:37:05;11.45;;;2.25;;
46507;SDS011;32223;53.654;10.014;2022-08-01T10:39:32;6.53;;;1.58;;
46507;SDS011;32223;53.654;10.014;2022-08-01T10:41:59;7.28;;;1.88;;
46507;SDS011;32223;53.654;10.014;2022-08-01T10:44:26;8.52;;;2.97;;
46507;SDS011;32223;53.654;10.014;2022-08-01T10:46:55;5.43;;;1.77;;
46507;SDS011;32223;53.654;10.014;2022-08-01T10:49:27;6.80;;;1.92;;
46507;SDS011;32223;53.654;10.014;2022-08-01T10:51:55;10.18;;;2.08;;
46507;SDS011;32223;53.654;10.014;2022-08-01T10:54:23;9.98;;;1.98;;
46507;SDS011;32223;53.654;10.014;2022-08-01T10:56:50;6.40;;;1.42;;
46507;SDS011;32223;53.654;10.014;2022-08-01T10:59:24;5.32;;;1.65;;
46507;SDS011;32223;53.654;10.014;2022-08-01T11:02:01;19.13;;;2.63;;
46507;SDS011;32223;53.654;10.014;2022-08-01T11:04:43;5.05;;;1.48;;
46507;SDS011;32223;53.654;10.014;2022-08-01T11:07:36;3.22;;;1.10;;
46507;SDS011;32223;53.654;10.014;2022-08-01T11:10:19;4.53;;;1.15;;
46507;SDS011;32223;53.654;10.014;2022-08-01T11:13:16;4.60;;;1.58;;
46507;SDS011;32223;53.654;10.014;2022-08-01T11:16:27;7.53;;;1.55;;
46507;SDS011;32223;53.654;10.014;2022-08-01T11:18:53;9.15;;;1.38;;
46507;SDS011;32223;53.654;10.014;2022-08-01T11:21:19;5.82;;;2.40;;
46507;SDS011;32223;53.654;10.014;2022-08-01T11:23:49;5.55;;;1.30;;
46507;SDS011;32223;53.654;10.014;2022-08-01T11:26:18;9.05;;;1.95;;
46507;SDS011;32223;53.654;10.014;2022-08-01T11:28:46;6.70;;;1.73;;
46507;SDS011;32223;53.654;10.014;2022-08-01T11:31:33;7.47;;;1.38;;
46507;SDS011;32223;53.654;10.014;2022-08-01T11:33:59;6.47;;;1.67;;
46507;SDS011;32223;53.654;10.014;2022-08-01T11:36:26;6.93;;;1.35;;
46507;SDS011;32223;53.654;10.014;2022-08-01T11:41:33;5.70;;;1.70;;
46507;SDS011;32223;53.654;10.014;2022-08-01T11:54:30;5.28;;;1.90;;
46507;SDS011;32223;53.654;10.014;2022-08-01T11:57:01;3.92;;;1.33;;
46507;SDS011;32223;53.654;10.014;2022-08-01T11:59:38;5.88;;;1.23;;
46507;SDS011;32223;53.654;10.014;2022-08-01T12:02:24;7.80;;;2.30;;
46507;SDS011;32223;53.654;10.014;2022-08-01T12:04:54;7.22;;;1.42;;
46507;SDS011;32223;53.654;10.014;2022-08-01T12:07:22;4.55;;;1.17;;
46507;SDS011;32223;53.654;10.014;2022-08-01T12:09:56;6.55;;;1.70;;
46507;SDS011;32223;53.654;10.014;2022-08-01T12:12:28;5.20;;;1.15;;
46507;SDS011;32223;53.654;10.014;2022-08-01T12:14:56;4.50;;;1.30;;
46507;SDS011;32223;53.654;10.014;2022-08-01T12:17:44;5.80;;;1.33;;
46507;SDS011;32223;53.654;10.014;2022-08-01T12:20:13;6.68;;;1.45;;
46507;SDS011;32223;53.654;10.014;2022-08-01T12:22:45;6.22;;;1.45;;
46507;SDS011;32223;53.654;10.014;2022-08-01T12:25:12;7.10;;;1.95;;
46507;SDS011;32223;53.654;10.014;2022-08-01T12:27:43;8.55;;;1.30;;
46507;SDS011;32223;53.654;10.014;2022-08-01T12:30:11;5.25;;;1.38;;
46507;SDS011;32223;53.654;10.014;2022-08-01T12:32:41;7.72;;;1.30;;
46507;SDS011;32223;53.654;10.014;2022-08-01T12:35:16;8.48;;;2.80;;
46507;SDS011;32223;53.654;10.014;2022-08-01T12:37:44;4.55;;;1.55;;
46507;SDS011;32223;53.654;10.014;2022-08-01T12:40:12;6.85;;;1.67;;
46507;SDS011;32223;53.654;10.014;2022-08-01T12:42:41;6.55;;;1.70;;
46507;SDS011;32223;53.654;10.014;2022-08-01T12:45:12;9.23;;;1.70;;
46507;SDS011;32223;53.654;10.014;2022-08-01T12:47:40;7.18;;;1.25;;
46507;SDS011;32223;53.654;10.014;2022-08-01T12:50:07;8.55;;;1.10;;
46507;SDS011;32223;53.654;10.014;2022-08-01T12:52:37;5.15;;;1.10;;
46507;SDS011;32223;53.654;10.014;2022-08-01T12:55:05;6.43;;;1.25;;
46507;SDS011;32223;53.654;10.014;2022-08-01T12:57:34;2.72;;;1.00;;
46507;SDS011;32223;53.654;10.014;2022-08-01T13:00:21;4.07;;;0.93;;
46507;SDS011;32223;53.654;10.014;2022-08-01T13:02:49;6.57;;;0.98;;
46507;SDS011;32223;53.654;10.014;2022-08-01T13:05:24;4.60;;;1.00;;
46507;SDS011;32223;53.654;10.014;2022-08-01T13:07:50;6.47;;;1.30;;
46507;SDS011;32223;53.654;10.014;2022-08-01T13:10:29;4.72;;;1.17;;
46507;SDS011;32223;53.654;10.014;2022-08-01T13:12:57;3.40;;;1.15;;
46507;SDS011;32223;53.654;10.014;2022-08-01T13:17:55;6.40;;;1.50;;
46507;SDS011;32223;53.654;10.014;2022-08-01T13:20:26;6.78;;;1.40;;
46507;SDS011;32223;53.654;10.014;2022-08-01T13:22:53;5.80;;;1.17;;
46507;SDS011;32223;53.654;10.014;2022-08-01T13:25:20;6.03;;;1.20;;
46507;SDS011;32223;53.654;10.014;2022-08-01T13:27:46;2.25;;;1.02;;
46507;SDS011;32223;53.654;10.014;2022-08-01T13:30:18;7.20;;;1.38;;
46507;SDS011;32223;53.654;10.014;2022-08-01T13:32:57;3.95;;;1.40;;
46507;SDS011;32223;53.654;10.014;2022-08-01T13:35:24;5.30;;;1.00;;
46507;SDS011;32223;53.654;10.014;2022-08-01T13:37:50;3.75;;;1.48;;
46507;SDS011;32223;53.654;10.014;2022-08-01T13:40:23;3.92;;;1.23;;
46507;SDS011;32223;53.654;10.014;2022-08-01T13:42:50;4.28;;;1.10;;
46507;SDS011;32223;53.654;10.014;2022-08-01T13:45:16;3.50;;;1.20;;
46507;SDS011;32223;53.654;10.014;2022-08-01T13:47:42;2.67;;;1.00;;
46507;SDS011;32223;53.654;10.014;2022-08-01T13:50:08;4.65;;;1.10;;
46507;SDS011;32223;53.654;10.014;2022-08-01T13:52:34;5.05;;;1.33;;
46507;SDS011;32223;53.654;10.014;2022-08-01T13:54:59;8.20;;;1.92;;
46507;SDS011;32223;53.654;10.014;2022-08-01T13:57:26;3.50;;;0.80;;
46507;SDS011;32223;53.654;10.014;2022-08-01T13:59:52;4.68;;;1.05;;
46507;SDS011;32223;53.654;10.014;2022-08-01T14:02:18;6.50;;;1.70;;
46507;SDS011;32223;53.654;10.014;2022-08-01T14:04:44;3.75;;;1.10;;
46507;SDS011;32223;53.654;10.014;2022-08-01T14:07:10;4.43;;;1.45;;
46507;SDS011;32223;53.654;10.014;2022-08-01T14:09:36;6.03;;;1.48;;
46507;SDS011;32223;53.654;10.014;2022-08-01T14:12:02;6.38;;;1.83;;
46507;SDS011;32223;53.654;10.014;2022-08-01T14:14:28;4.05;;;1.00;;
46507;SDS011;32223;53.654;10.014;2022-08-01T14:16:55;4.38;;;1.23;;
46507;SDS011;32223;53.654;10.014;2022-08-01T14:19:21;2.05;;;0.88;;
46507;SDS011;32223;53.654;10.014;2022-08-01T14:21:46;3.40;;;1.13;;
46507;SDS011;32223;53.654;10.014;2022-08-01T14:24:12;5.50;;;1.30;;
46507;SDS011;32223;53.654;10.014;2022-08-01T14:26:38;6.13;;;1.02;;
46507;SDS011;32223;53.654;10.014;2022-08-01T14:29:03;5.05;;;1.10;;
46507;SDS011;32223;53.654;10.014;2022-08-01T14:31:29;4.63;;;1.20;;
46507;SDS011;32223;53.654;10.014;2022-08-01T14:33:55;3.65;;;1.10;;
46507;SDS011;32223;53.654;10.014;2022-08-01T14:36:20;5.07;;;1.35;;
46507;SDS011;32223;53.654;10.014;2022-08-01T14:38:46;3.67;;;1.60;;
46507;SDS011;32223;53.654;10.014;2022-08-01T14:41:12;3.53;;;0.93;;
46507;SDS011;32223;53.654;10.014;2022-08-01T14:43:39;5.30;;;1.65;;
46507;SDS011;32223;53.654;10.014;2022-08-01T14:46:04;3.60;;;1.30;;
46507;SDS011;32223;53.654;10.014;2022-08-01T14:48:30;6.95;;;1.80;;
46507;SDS011;32223;53.654;10.014;2022-08-01T14:50:56;4.93;;;1.35;;
46507;SDS011;32223;53.654;10.014;2022-08-01T14:53:23;8.40;;;1.52;;
46507;SDS011;32223;53.654;10.014;2022-08-01T14:55:49;2.97;;;1.00;;
46507;SDS011;32223;53.654;10.014;2022-08-01T14:58:15;3.15;;;0.95;;
46507;SDS011;32223;53.654;10.014;2022-08-01T15:00:41;4.03;;;1.02;;
46507;SDS011;32223;53.654;10.014;2022-08-01T15:03:06;7.18;;;1.38;;
46507;SDS011;32223;53.654;10.014;2022-08-01T15:05:32;4.93;;;1.98;;
46507;SDS011;32223;53.654;10.014;2022-08-01T15:07:58;3.50;;;1.50;;
46507;SDS011;32223;53.654;10.014;2022-08-01T15:10:23;3.75;;;1.30;;